Urb Los Arboles, Puerto Rico
Current Conditions -  °F | °C
As of 7:56 PM on Monday 24 Nov 2014 (Local Time) from TJSJ Reporting Station
Broken Clouds Broken Clouds  
Wind Chill: 80°   Ceiling: 4100
Heat Index: 85°   Visibility: 10mi
Dew Point: 75°   Wind: 12mph
Humidity: 85%   Direction: 80°E
Pressure: 30.05"   Gusts: NA
Location:  18.4083°N, 65.981°W
Report Text: TJSJ 242356Z 08010KT 10SM SCT027 SCT034 BKN041 27/24 A3005 RMK AO2 SLP173 T02670239 10283 20256 53016
Loading
Personal Weather Stations






























Interactive Weather Map New forecast layout! Learn more

10-Day Weather Forecast

Advertisements
Track Severe Weather on mobile